sensor_id;sensor_type;location;lat;lon;timestamp;temperature;humidity
55634;DHT22;41504;53.162;6.788;2022-12-07T00:01:12;4.00;93.40
55634;DHT22;41504;53.162;6.788;2022-12-07T00:03:39;4.00;93.30
55634;DHT22;41504;53.162;6.788;2022-12-07T00:06:06;4.00;93.20
55634;DHT22;41504;53.162;6.788;2022-12-07T00:08:33;4.10;93.00
55634;DHT22;41504;53.162;6.788;2022-12-07T00:11:09;4.10;92.80
55634;DHT22;41504;53.162;6.788;2022-12-07T00:13:37;4.10;92.80
55634;DHT22;41504;53.162;6.788;2022-12-07T00:16:06;4.20;92.90
55634;DHT22;41504;53.162;6.788;2022-12-07T00:18:32;4.20;92.80
55634;DHT22;41504;53.162;6.788;2022-12-07T00:21:09;4.20;92.80
55634;DHT22;41504;53.162;6.788;2022-12-07T00:23:35;4.20;92.80
55634;DHT22;41504;53.162;6.788;2022-12-07T00:28:31;4.20;92.80
55634;DHT22;41504;53.162;6.788;2022-12-07T00:31:01;4.30;92.90
55634;DHT22;41504;53.162;6.788;2022-12-07T00:33:27;4.20;92.90
55634;DHT22;41504;53.162;6.788;2022-12-07T00:35:57;4.20;92.90
55634;DHT22;41504;53.162;6.788;2022-12-07T00:38:24;4.60;93.00
55634;DHT22;41504;53.162;6.788;2022-12-07T00:41:00;4.30;93.00
55634;DHT22;41504;53.162;6.788;2022-12-07T00:43:27;4.30;93.00
55634;DHT22;41504;53.162;6.788;2022-12-07T00:45:54;4.30;93.00
55634;DHT22;41504;53.162;6.788;2022-12-07T00:48:20;4.20;93.00
55634;DHT22;41504;53.162;6.788;2022-12-07T00:50:47;4.20;93.00
55634;DHT22;41504;53.162;6.788;2022-12-07T00:53:13;4.20;93.20
55634;DHT22;41504;53.162;6.788;2022-12-07T00:55:38;4.20;92.90
55634;DHT22;41504;53.162;6.788;2022-12-07T00:58:04;4.20;92.90
55634;DHT22;41504;53.162;6.788;2022-12-07T01:00:30;4.20;92.90
55634;DHT22;41504;53.162;6.788;2022-12-07T01:02:56;4.20;92.90
55634;DHT22;41504;53.162;6.788;2022-12-07T01:05:22;4.20;92.80
55634;DHT22;41504;53.162;6.788;2022-12-07T01:07:48;4.20;92.90
55634;DHT22;41504;53.162;6.788;2022-12-07T01:10:14;4.10;92.90
55634;DHT22;41504;53.162;6.788;2022-12-07T01:12:40;4.20;92.90
55634;DHT22;41504;53.162;6.788;2022-12-07T01:15:07;4.20;92.80
55634;DHT22;41504;53.162;6.788;2022-12-07T01:17:33;4.20;92.80
55634;DHT22;41504;53.162;6.788;2022-12-07T01:19:59;4.20;92.70
55634;DHT22;41504;53.162;6.788;2022-12-07T01:22:25;4.30;92.70
55634;DHT22;41504;53.162;6.788;2022-12-07T01:24:50;4.30;92.70
55634;DHT22;41504;53.162;6.788;2022-12-07T01:27:16;4.30;92.70
55634;DHT22;41504;53.162;6.788;2022-12-07T01:29:42;4.30;92.70
55634;DHT22;41504;53.162;6.788;2022-12-07T01:32:08;4.40;92.60
55634;DHT22;41504;53.162;6.788;2022-12-07T01:34:33;4.40;92.40
55634;DHT22;41504;53.162;6.788;2022-12-07T01:36:59;4.50;92.40
55634;DHT22;41504;53.162;6.788;2022-12-07T01:39:25;4.50;92.40
55634;DHT22;41504;53.162;6.788;2022-12-07T01:41:51;4.50;92.40
55634;DHT22;41504;53.162;6.788;2022-12-07T01:46:49;4.50;92.40
55634;DHT22;41504;53.162;6.788;2022-12-07T01:49:34;4.80;92.50
55634;DHT22;41504;53.162;6.788;2022-12-07T01:54:29;4.40;92.50
55634;DHT22;41504;53.162;6.788;2022-12-07T01:56:56;4.40;92.40
55634;DHT22;41504;53.162;6.788;2022-12-07T01:59:24;4.50;92.40
55634;DHT22;41504;53.162;6.788;2022-12-07T02:01:53;4.50;92.30
55634;DHT22;41504;53.162;6.788;2022-12-07T02:04:21;4.60;92.20
55634;DHT22;41504;53.162;6.788;2022-12-07T02:06:48;4.60;92.00
55634;DHT22;41504;53.162;6.788;2022-12-07T02:09:15;4.60;92.00
55634;DHT22;41504;53.162;6.788;2022-12-07T02:11:41;4.50;92.10
55634;DHT22;41504;53.162;6.788;2022-12-07T02:14:07;4.50;92.20
55634;DHT22;41504;53.162;6.788;2022-12-07T02:26:50;4.40;92.40
55634;DHT22;41504;53.162;6.788;2022-12-07T02:32:04;4.40;92.60
55634;DHT22;41504;53.162;6.788;2022-12-07T02:42:31;4.20;92.70
55634;DHT22;41504;53.162;6.788;2022-12-07T02:44:57;4.20;92.70
55634;DHT22;41504;53.162;6.788;2022-12-07T02:47:24;4.10;92.70
55634;DHT22;41504;53.162;6.788;2022-12-07T02:49:50;4.10;92.80
55634;DHT22;41504;53.162;6.788;2022-12-07T02:52:16;4.10;92.80
55634;DHT22;41504;53.162;6.788;2022-12-07T02:54:42;4.10;92.90
55634;DHT22;41504;53.162;6.788;2022-12-07T02:59:47;4.00;93.00
55634;DHT22;41504;53.162;6.788;2022-12-07T03:10:33;3.90;93.20
55634;DHT22;41504;53.162;6.788;2022-12-07T03:12:44;4.00;93.30
55634;DHT22;41504;53.162;6.788;2022-12-07T03:18:02;4.00;93.30
55634;DHT22;41504;53.162;6.788;2022-12-07T03:20:29;4.10;93.20
55634;DHT22;41504;53.162;6.788;2022-12-07T03:22:56;4.10;93.10
55634;DHT22;41504;53.162;6.788;2022-12-07T03:25:22;4.00;93.10
55634;DHT22;41504;53.162;6.788;2022-12-07T03:30:18;4.00;93.10
55634;DHT22;41504;53.162;6.788;2022-12-07T03:32:45;4.00;93.10
55634;DHT22;41504;53.162;6.788;2022-12-07T03:35:18;4.00;93.10
55634;DHT22;41504;53.162;6.788;2022-12-07T03:37:47;4.00;93.10
55634;DHT22;41504;53.162;6.788;2022-12-07T03:42:40;4.10;93.20
55634;DHT22;41504;53.162;6.788;2022-12-07T03:45:06;4.10;93.10
55634;DHT22;41504;53.162;6.788;2022-12-07T03:47:43;4.10;93.10
55634;DHT22;41504;53.162;6.788;2022-12-07T03:50:14;4.10;93.10
55634;DHT22;41504;53.162;6.788;2022-12-07T03:52:41;4.10;93.10
55634;DHT22;41504;53.162;6.788;2022-12-07T03:57:33;4.20;93.20
55634;DHT22;41504;53.162;6.788;2022-12-07T04:00:00;4.20;93.00
55634;DHT22;41504;53.162;6.788;2022-12-07T04:02:27;4.20;92.90
55634;DHT22;41504;53.162;6.788;2022-12-07T04:04:56;4.40;92.90
55634;DHT22;41504;53.162;6.788;2022-12-07T04:07:21;4.60;92.80
55634;DHT22;41504;53.162;6.788;2022-12-07T04:09:47;4.30;92.70
55634;DHT22;41504;53.162;6.788;2022-12-07T04:12:13;4.40;92.60
55634;DHT22;41504;53.162;6.788;2022-12-07T04:14:38;4.40;92.90
55634;DHT22;41504;53.162;6.788;2022-12-07T04:17:04;4.20;92.70
55634;DHT22;41504;53.162;6.788;2022-12-07T04:19:30;4.30;92.70
55634;DHT22;41504;53.162;6.788;2022-12-07T04:22:00;4.20;92.70
55634;DHT22;41504;53.162;6.788;2022-12-07T04:24:26;4.20;92.70
55634;DHT22;41504;53.162;6.788;2022-12-07T04:26:51;4.20;92.80
55634;DHT22;41504;53.162;6.788;2022-12-07T04:29:17;4.10;92.80
55634;DHT22;41504;53.162;6.788;2022-12-07T04:31:43;4.10;92.80
55634;DHT22;41504;53.162;6.788;2022-12-07T04:34:09;4.10;92.80
55634;DHT22;41504;53.162;6.788;2022-12-07T04:36:35;4.10;92.90
55634;DHT22;41504;53.162;6.788;2022-12-07T04:39:03;4.10;92.80
55634;DHT22;41504;53.162;6.788;2022-12-07T04:41:29;4.10;92.80
55634;DHT22;41504;53.162;6.788;2022-12-07T04:43:56;4.10;92.80
55634;DHT22;41504;53.162;6.788;2022-12-07T04:46:22;4.10;92.80
55634;DHT22;41504;53.162;6.788;2022-12-07T04:48:48;4.10;92.80
55634;DHT22;41504;53.162;6.788;2022-12-07T04:51:15;4.10;92.70
55634;DHT22;41504;53.162;6.788;2022-12-07T04:53:43;4.10;92.70
55634;DHT22;41504;53.162;6.788;2022-12-07T04:56:09;4.10;92.80
55634;DHT22;41504;53.162;6.788;2022-12-07T04:58:34;4.10;92.50
55634;DHT22;41504;53.162;6.788;2022-12-07T05:01:00;4.10;92.60
55634;DHT22;41504;53.162;6.788;2022-12-07T05:03:25;4.20;92.30
55634;DHT22;41504;53.162;6.788;2022-12-07T05:05:51;4.20;92.30
55634;DHT22;41504;53.162;6.788;2022-12-07T05:08:17;4.20;92.40
55634;DHT22;41504;53.162;6.788;2022-12-07T05:10:42;4.20;92.30
55634;DHT22;41504;53.162;6.788;2022-12-07T05:13:08;4.10;92.20
55634;DHT22;41504;53.162;6.788;2022-12-07T05:15:33;4.10;92.20
55634;DHT22;41504;53.162;6.788;2022-12-07T05:17:59;4.10;92.30
55634;DHT22;41504;53.162;6.788;2022-12-07T05:20:25;4.00;92.40
55634;DHT22;41504;53.162;6.788;2022-12-07T05:22:50;3.90;92.40
55634;DHT22;41504;53.162;6.788;2022-12-07T05:25:16;3.90;92.50
55634;DHT22;41504;53.162;6.788;2022-12-07T05:27:41;4.10;92.60
55634;DHT22;41504;53.162;6.788;2022-12-07T05:30:07;3.80;92.50
55634;DHT22;41504;53.162;6.788;2022-12-07T05:32:33;3.80;92.70
55634;DHT22;41504;53.162;6.788;2022-12-07T05:34:58;3.80;92.70
55634;DHT22;41504;53.162;6.788;2022-12-07T05:37:24;3.70;92.70
55634;DHT22;41504;53.162;6.788;2022-12-07T05:39:49;3.70;92.80
55634;DHT22;41504;53.162;6.788;2022-12-07T05:42:15;3.70;92.90
55634;DHT22;41504;53.162;6.788;2022-12-07T05:44:42;3.60;92.90
55634;DHT22;41504;53.162;6.788;2022-12-07T05:47:09;3.60;92.90
55634;DHT22;41504;53.162;6.788;2022-12-07T05:49:34;3.60;93.00
55634;DHT22;41504;53.162;6.788;2022-12-07T05:52:00;3.60;93.00
55634;DHT22;41504;53.162;6.788;2022-12-07T05:54:25;3.50;93.00
55634;DHT22;41504;53.162;6.788;2022-12-07T05:56:51;3.50;93.10
55634;DHT22;41504;53.162;6.788;2022-12-07T05:59:17;3.50;93.10
55634;DHT22;41504;53.162;6.788;2022-12-07T06:01:52;3.50;93.10
55634;DHT22;41504;53.162;6.788;2022-12-07T06:04:18;3.40;93.10
55634;DHT22;41504;53.162;6.788;2022-12-07T06:06:44;3.40;93.10
55634;DHT22;41504;53.162;6.788;2022-12-07T06:09:09;3.40;93.10
55634;DHT22;41504;53.162;6.788;2022-12-07T06:11:35;3.30;93.00
55634;DHT22;41504;53.162;6.788;2022-12-07T06:14:20;3.30;93.10
55634;DHT22;41504;53.162;6.788;2022-12-07T06:16:48;3.40;93.20
55634;DHT22;41504;53.162;6.788;2022-12-07T06:19:13;3.30;93.20
55634;DHT22;41504;53.162;6.788;2022-12-07T06:21:39;3.30;93.30
55634;DHT22;41504;53.162;6.788;2022-12-07T06:24:07;3.30;93.30
55634;DHT22;41504;53.162;6.788;2022-12-07T06:26:32;3.30;93.30
55634;DHT22;41504;53.162;6.788;2022-12-07T06:28:58;3.40;93.20
55634;DHT22;41504;53.162;6.788;2022-12-07T06:31:23;3.30;93.40
55634;DHT22;41504;53.162;6.788;2022-12-07T06:33:49;3.40;93.20
55634;DHT22;41504;53.162;6.788;2022-12-07T06:36:15;3.40;92.90
55634;DHT22;41504;53.162;6.788;2022-12-07T06:38:40;3.50;92.70
55634;DHT22;41504;53.162;6.788;2022-12-07T06:41:06;3.50;92.70
55634;DHT22;41504;53.162;6.788;2022-12-07T06:43:32;3.60;92.50
55634;DHT22;41504;53.162;6.788;2022-12-07T06:45:57;3.70;92.40
55634;DHT22;41504;53.162;6.788;2022-12-07T06:48:23;4.10;92.50
55634;DHT22;41504;53.162;6.788;2022-12-07T06:50:49;3.70;92.40
55634;DHT22;41504;53.162;6.788;2022-12-07T06:53:14;3.70;92.50
55634;DHT22;41504;53.162;6.788;2022-12-07T06:55:41;3.70;92.30
55634;DHT22;41504;53.162;6.788;2022-12-07T06:58:07;3.70;92.40
55634;DHT22;41504;53.162;6.788;2022-12-07T07:00:32;4.20;92.60
55634;DHT22;41504;53.162;6.788;2022-12-07T07:03:03;3.60;92.50
55634;DHT22;41504;53.162;6.788;2022-12-07T07:05:28;3.60;92.60
55634;DHT22;41504;53.162;6.788;2022-12-07T07:07:54;3.60;92.60
55634;DHT22;41504;53.162;6.788;2022-12-07T07:10:19;3.60;92.70
55634;DHT22;41504;53.162;6.788;2022-12-07T07:12:45;3.50;92.60
55634;DHT22;41504;53.162;6.788;2022-12-07T07:15:11;3.50;92.70
55634;DHT22;41504;53.162;6.788;2022-12-07T07:17:37;3.50;92.80
55634;DHT22;41504;53.162;6.788;2022-12-07T07:20:03;3.50;92.70
55634;DHT22;41504;53.162;6.788;2022-12-07T07:22:29;3.50;92.70
55634;DHT22;41504;53.162;6.788;2022-12-07T07:24:54;3.50;92.80
55634;DHT22;41504;53.162;6.788;2022-12-07T07:27:20;3.50;92.60
55634;DHT22;41504;53.162;6.788;2022-12-07T07:29:45;3.50;92.50
55634;DHT22;41504;53.162;6.788;2022-12-07T07:32:11;3.60;92.30
55634;DHT22;41504;53.162;6.788;2022-12-07T07:34:37;4.10;92.20
55634;DHT22;41504;53.162;6.788;2022-12-07T07:37:03;3.70;92.20
55634;DHT22;41504;53.162;6.788;2022-12-07T07:39:28;3.80;92.20
55634;DHT22;41504;53.162;6.788;2022-12-07T07:41:54;3.60;92.20
55634;DHT22;41504;53.162;6.788;2022-12-07T07:44:20;3.70;92.20
55634;DHT22;41504;53.162;6.788;2022-12-07T07:46:45;3.70;91.30
55634;DHT22;41504;53.162;6.788;2022-12-07T07:49:11;3.80;91.60
55634;DHT22;41504;53.162;6.788;2022-12-07T07:51:36;3.80;91.10
55634;DHT22;41504;53.162;6.788;2022-12-07T07:54:02;3.90;91.40
55634;DHT22;41504;53.162;6.788;2022-12-07T07:56:28;3.90;91.40
55634;DHT22;41504;53.162;6.788;2022-12-07T07:58:54;3.90;91.50
55634;DHT22;41504;53.162;6.788;2022-12-07T08:01:22;4.00;91.00
55634;DHT22;41504;53.162;6.788;2022-12-07T08:03:48;4.00;91.40
55634;DHT22;41504;53.162;6.788;2022-12-07T08:06:14;4.00;91.40
55634;DHT22;41504;53.162;6.788;2022-12-07T08:08:39;4.00;91.50
55634;DHT22;41504;53.162;6.788;2022-12-07T08:11:07;4.00;91.30
55634;DHT22;41504;53.162;6.788;2022-12-07T08:13:33;4.00;91.40
55634;DHT22;41504;53.162;6.788;2022-12-07T08:15:58;4.10;91.40
55634;DHT22;41504;53.162;6.788;2022-12-07T08:18:28;4.10;91.20
55634;DHT22;41504;53.162;6.788;2022-12-07T08:20:58;4.00;91.30
55634;DHT22;41504;53.162;6.788;2022-12-07T08:23:24;4.10;91.40
55634;DHT22;41504;53.162;6.788;2022-12-07T08:25:49;4.10;91.50
55634;DHT22;41504;53.162;6.788;2022-12-07T08:28:15;3.90;91.60
55634;DHT22;41504;53.162;6.788;2022-12-07T08:30:40;3.90;91.60
55634;DHT22;41504;53.162;6.788;2022-12-07T08:33:06;3.80;91.70
55634;DHT22;41504;53.162;6.788;2022-12-07T08:35:32;3.80;91.70
55634;DHT22;41504;53.162;6.788;2022-12-07T08:37:58;3.70;91.70
55634;DHT22;41504;53.162;6.788;2022-12-07T08:40:24;3.70;91.80
55634;DHT22;41504;53.162;6.788;2022-12-07T08:42:49;3.70;91.90
55634;DHT22;41504;53.162;6.788;2022-12-07T08:45:16;3.70;92.00
55634;DHT22;41504;53.162;6.788;2022-12-07T08:47:43;3.60;92.00
55634;DHT22;41504;53.162;6.788;2022-12-07T08:50:10;3.70;92.10
55634;DHT22;41504;53.162;6.788;2022-12-07T08:52:40;3.70;92.10
55634;DHT22;41504;53.162;6.788;2022-12-07T08:55:06;3.70;92.10
55634;DHT22;41504;53.162;6.788;2022-12-07T08:57:32;3.70;92.00
55634;DHT22;41504;53.162;6.788;2022-12-07T08:59:58;3.70;92.00
55634;DHT22;41504;53.162;6.788;2022-12-07T09:02:24;3.80;91.90
55634;DHT22;41504;53.162;6.788;2022-12-07T09:04:50;4.10;92.00
55634;DHT22;41504;53.162;6.788;2022-12-07T09:07:15;3.90;91.90
55634;DHT22;41504;53.162;6.788;2022-12-07T09:09:41;3.90;91.80
55634;DHT22;41504;53.162;6.788;2022-12-07T09:12:07;4.00;91.80
55634;DHT22;41504;53.162;6.788;2022-12-07T09:14:33;4.10;91.80
55634;DHT22;41504;53.162;6.788;2022-12-07T09:17:05;4.10;91.80
55634;DHT22;41504;53.162;6.788;2022-12-07T09:19:31;4.20;91.80
55634;DHT22;41504;53.162;6.788;2022-12-07T09:21:57;4.30;91.80
55634;DHT22;41504;53.162;6.788;2022-12-07T09:24:23;4.30;91.70
55634;DHT22;41504;53.162;6.788;2022-12-07T09:26:49;4.40;91.60
55634;DHT22;41504;53.162;6.788;2022-12-07T09:29:14;4.50;91.70
55634;DHT22;41504;53.162;6.788;2022-12-07T09:31:40;4.50;91.70
55634;DHT22;41504;53.162;6.788;2022-12-07T09:34:06;4.60;91.70
55634;DHT22;41504;53.162;6.788;2022-12-07T09:36:32;4.60;91.70
55634;DHT22;41504;53.162;6.788;2022-12-07T09:38:58;4.60;91.70
55634;DHT22;41504;53.162;6.788;2022-12-07T09:41:24;4.70;91.70
55634;DHT22;41504;53.162;6.788;2022-12-07T09:43:50;4.80;91.80
55634;DHT22;41504;53.162;6.788;2022-12-07T09:46:17;4.80;91.50
55634;DHT22;41504;53.162;6.788;2022-12-07T09:48:44;4.80;91.60
55634;DHT22;41504;53.162;6.788;2022-12-07T09:53:41;5.00;91.40
55634;DHT22;41504;53.162;6.788;2022-12-07T09:56:09;5.10;90.90
55634;DHT22;41504;53.162;6.788;2022-12-07T09:58:37;5.20;91.00
55634;DHT22;41504;53.162;6.788;2022-12-07T10:01:11;5.10;90.70
55634;DHT22;41504;53.162;6.788;2022-12-07T10:03:38;5.10;90.70
55634;DHT22;41504;53.162;6.788;2022-12-07T10:06:04;5.10;90.60
55634;DHT22;41504;53.162;6.788;2022-12-07T10:08:33;5.10;90.90
55634;DHT22;41504;53.162;6.788;2022-12-07T10:11:03;5.10;90.80
55634;DHT22;41504;53.162;6.788;2022-12-07T10:16:01;5.20;90.90
55634;DHT22;41504;53.162;6.788;2022-12-07T10:18:37;5.30;90.70
55634;DHT22;41504;53.162;6.788;2022-12-07T10:21:16;5.30;90.70
55634;DHT22;41504;53.162;6.788;2022-12-07T10:23:58;5.40;90.60
55634;DHT22;41504;53.162;6.788;2022-12-07T10:28:54;5.30;90.10
55634;DHT22;41504;53.162;6.788;2022-12-07T10:31:21;5.30;90.00
55634;DHT22;41504;53.162;6.788;2022-12-07T10:36:17;5.40;90.30
55634;DHT22;41504;53.162;6.788;2022-12-07T10:38:44;5.30;90.00
55634;DHT22;41504;53.162;6.788;2022-12-07T10:41:10;5.30;90.30
55634;DHT22;41504;53.162;6.788;2022-12-07T10:43:36;5.40;90.50
55634;DHT22;41504;53.162;6.788;2022-12-07T10:46:13;5.40;90.40
55634;DHT22;41504;53.162;6.788;2022-12-07T10:48:59;5.40;90.30
55634;DHT22;41504;53.162;6.788;2022-12-07T10:51:34;5.40;90.50
55634;DHT22;41504;53.162;6.788;2022-12-07T10:56:55;5.40;90.70
55634;DHT22;41504;53.162;6.788;2022-12-07T10:59:26;5.40;90.40
55634;DHT22;41504;53.162;6.788;2022-12-07T11:04:29;5.40;90.60
55634;DHT22;41504;53.162;6.788;2022-12-07T11:12:00;5.60;90.50
55634;DHT22;41504;53.162;6.788;2022-12-07T11:14:36;5.70;90.50
55634;DHT22;41504;53.162;6.788;2022-12-07T11:17:04;5.80;90.10
55634;DHT22;41504;53.162;6.788;2022-12-07T11:19:40;5.80;90.10
55634;DHT22;41504;53.162;6.788;2022-12-07T11:22:13;5.90;89.40
55634;DHT22;41504;53.162;6.788;2022-12-07T11:37:03;5.70;89.10
55634;DHT22;41504;53.162;6.788;2022-12-07T11:39:44;5.60;88.20
55634;DHT22;41504;53.162;6.788;2022-12-07T11:42:22;5.60;87.10
55634;DHT22;41504;53.162;6.788;2022-12-07T11:44:52;5.60;87.00
55634;DHT22;41504;53.162;6.788;2022-12-07T11:47:30;5.60;89.00
55634;DHT22;41504;53.162;6.788;2022-12-07T11:52:48;5.60;89.40
55634;DHT22;41504;53.162;6.788;2022-12-07T11:55:26;5.70;89.90
55634;DHT22;41504;53.162;6.788;2022-12-07T11:57:58;5.60;89.40
55634;DHT22;41504;53.162;6.788;2022-12-07T12:00:27;5.60;89.70
55634;DHT22;41504;53.162;6.788;2022-12-07T12:03:12;5.60;89.60
55634;DHT22;41504;53.162;6.788;2022-12-07T12:05:40;5.60;89.90
55634;DHT22;41504;53.162;6.788;2022-12-07T12:15:38;5.50;90.30
55634;DHT22;41504;53.162;6.788;2022-12-07T12:18:18;5.60;90.30
55634;DHT22;41504;53.162;6.788;2022-12-07T12:21:09;5.50;90.30
55634;DHT22;41504;53.162;6.788;2022-12-07T12:26:14;5.50;90.30
55634;DHT22;41504;53.162;6.788;2022-12-07T12:28:41;5.40;90.50
55634;DHT22;41504;53.162;6.788;2022-12-07T12:31:13;5.30;90.40
55634;DHT22;41504;53.162;6.788;2022-12-07T12:33:42;5.30;90.50
55634;DHT22;41504;53.162;6.788;2022-12-07T12:54:19;5.30;90.60
55634;DHT22;41504;53.162;6.788;2022-12-07T12:57:29;5.40;90.50
55634;DHT22;41504;53.162;6.788;2022-12-07T13:02:25;5.50;90.30
55634;DHT22;41504;53.162;6.788;2022-12-07T13:04:52;5.50;89.90
55634;DHT22;41504;53.162;6.788;2022-12-07T13:10:03;5.50;90.30
55634;DHT22;41504;53.162;6.788;2022-12-07T13:12:29;5.50;90.30
55634;DHT22;41504;53.162;6.788;2022-12-07T13:14:56;5.50;90.00
55634;DHT22;41504;53.162;6.788;2022-12-07T13:19:58;5.60;90.20
55634;DHT22;41504;53.162;6.788;2022-12-07T13:24:56;5.60;89.80
55634;DHT22;41504;53.162;6.788;2022-12-07T13:27:24;5.60;89.20
55634;DHT22;41504;53.162;6.788;2022-12-07T13:29:50;5.60;88.20
55634;DHT22;41504;53.162;6.788;2022-12-07T13:32:23;5.60;88.70
55634;DHT22;41504;53.162;6.788;2022-12-07T13:34:49;5.60;88.90
55634;DHT22;41504;53.162;6.788;2022-12-07T13:39:53;5.50;88.60
55634;DHT22;41504;53.162;6.788;2022-12-07T13:44:45;5.30;88.80
55634;DHT22;41504;53.162;6.788;2022-12-07T13:47:46;5.20;88.90
55634;DHT22;41504;53.162;6.788;2022-12-07T13:50:20;5.20;89.00
55634;DHT22;41504;53.162;6.788;2022-12-07T13:52:47;5.10;88.70
55634;DHT22;41504;53.162;6.788;2022-12-07T13:55:15;5.10;89.50
55634;DHT22;41504;53.162;6.788;2022-12-07T13:57:41;5.00;89.30
55634;DHT22;41504;53.162;6.788;2022-12-07T14:00:15;5.00;89.60
55634;DHT22;41504;53.162;6.788;2022-12-07T14:03:00;5.00;89.20
55634;DHT22;41504;53.162;6.788;2022-12-07T14:08:02;4.90;89.70
55634;DHT22;41504;53.162;6.788;2022-12-07T14:10:29;4.80;89.70
55634;DHT22;41504;53.162;6.788;2022-12-07T14:12:55;4.70;90.10
55634;DHT22;41504;53.162;6.788;2022-12-07T14:15:22;4.70;90.20
55634;DHT22;41504;53.162;6.788;2022-12-07T14:17:52;4.60;90.20
55634;DHT22;41504;53.162;6.788;2022-12-07T14:20:28;4.60;90.20
55634;DHT22;41504;53.162;6.788;2022-12-07T14:22:54;4.50;90.30
55634;DHT22;41504;53.162;6.788;2022-12-07T14:25:21;4.50;90.40
55634;DHT22;41504;53.162;6.788;2022-12-07T14:28:09;4.50;90.30
55634;DHT22;41504;53.162;6.788;2022-12-07T14:30:36;4.40;90.50
55634;DHT22;41504;53.162;6.788;2022-12-07T14:33:02;4.40;90.40
55634;DHT22;41504;53.162;6.788;2022-12-07T14:35:29;4.30;90.60
55634;DHT22;41504;53.162;6.788;2022-12-07T14:37:54;4.30;90.60
55634;DHT22;41504;53.162;6.788;2022-12-07T14:40:24;4.20;90.70
55634;DHT22;41504;53.162;6.788;2022-12-07T14:43:11;4.20;90.70
55634;DHT22;41504;53.162;6.788;2022-12-07T14:45:37;4.10;90.80
55634;DHT22;41504;53.162;6.788;2022-12-07T14:48:03;4.10;90.90
55634;DHT22;41504;53.162;6.788;2022-12-07T14:50:29;4.10;90.90
55634;DHT22;41504;53.162;6.788;2022-12-07T14:53:01;4.10;90.90
55634;DHT22;41504;53.162;6.788;2022-12-07T14:55:31;4.00;90.90
55634;DHT22;41504;53.162;6.788;2022-12-07T14:57:57;4.10;91.10
55634;DHT22;41504;53.162;6.788;2022-12-07T15:00:24;4.10;91.10
55634;DHT22;41504;53.162;6.788;2022-12-07T15:02:50;4.10;91.10
55634;DHT22;41504;53.162;6.788;2022-12-07T15:05:17;4.40;91.20
55634;DHT22;41504;53.162;6.788;2022-12-07T15:07:43;4.10;91.10
55634;DHT22;41504;53.162;6.788;2022-12-07T15:10:12;4.20;91.20
55634;DHT22;41504;53.162;6.788;2022-12-07T15:12:39;4.20;91.10
55634;DHT22;41504;53.162;6.788;2022-12-07T15:15:08;4.20;91.20
55634;DHT22;41504;53.162;6.788;2022-12-07T15:17:34;4.30;91.10
55634;DHT22;41504;53.162;6.788;2022-12-07T15:20:00;4.30;90.90
55634;DHT22;41504;53.162;6.788;2022-12-07T15:22:25;4.20;91.10
55634;DHT22;41504;53.162;6.788;2022-12-07T15:24:51;4.20;90.90
55634;DHT22;41504;53.162;6.788;2022-12-07T15:27:17;4.20;91.20
55634;DHT22;41504;53.162;6.788;2022-12-07T15:29:42;4.20;91.10
55634;DHT22;41504;53.162;6.788;2022-12-07T15:32:08;4.10;91.00
55634;DHT22;41504;53.162;6.788;2022-12-07T15:34:33;4.20;91.10
55634;DHT22;41504;53.162;6.788;2022-12-07T15:36:59;4.10;91.20
55634;DHT22;41504;53.162;6.788;2022-12-07T15:39:25;4.10;91.20
55634;DHT22;41504;53.162;6.788;2022-12-07T15:41:50;4.10;91.20
55634;DHT22;41504;53.162;6.788;2022-12-07T15:44:16;4.10;91.20
55634;DHT22;41504;53.162;6.788;2022-12-07T15:47:04;4.00;91.30
55634;DHT22;41504;53.162;6.788;2022-12-07T15:49:30;4.00;91.30
55634;DHT22;41504;53.162;6.788;2022-12-07T15:51:55;4.00;91.40
55634;DHT22;41504;53.162;6.788;2022-12-07T15:54:22;4.00;91.30
55634;DHT22;41504;53.162;6.788;2022-12-07T15:56:48;4.00;91.40
55634;DHT22;41504;53.162;6.788;2022-12-07T15:59:14;4.00;91.40
55634;DHT22;41504;53.162;6.788;2022-12-07T16:01:40;4.00;91.50
55634;DHT22;41504;53.162;6.788;2022-12-07T16:04:06;4.00;91.40
55634;DHT22;41504;53.162;6.788;2022-12-07T16:06:31;3.90;91.40
55634;DHT22;41504;53.162;6.788;2022-12-07T16:08:57;3.90;91.50
55634;DHT22;41504;53.162;6.788;2022-12-07T16:11:22;3.90;91.50
55634;DHT22;41504;53.162;6.788;2022-12-07T16:13:48;3.90;91.50
55634;DHT22;41504;53.162;6.788;2022-12-07T16:16:14;3.80;91.40
55634;DHT22;41504;53.162;6.788;2022-12-07T16:18:42;3.90;91.50
55634;DHT22;41504;53.162;6.788;2022-12-07T16:21:08;3.80;91.50
55634;DHT22;41504;53.162;6.788;2022-12-07T16:23:33;3.80;91.50
55634;DHT22;41504;53.162;6.788;2022-12-07T16:26:03;3.80;91.50
55634;DHT22;41504;53.162;6.788;2022-12-07T16:28:29;3.80;91.50
55634;DHT22;41504;53.162;6.788;2022-12-07T16:31:04;3.80;91.50
55634;DHT22;41504;53.162;6.788;2022-12-07T16:33:34;3.70;91.50
55634;DHT22;41504;53.162;6.788;2022-12-07T16:36:00;3.70;91.50
55634;DHT22;41504;53.162;6.788;2022-12-07T16:38:26;3.70;91.50
55634;DHT22;41504;53.162;6.788;2022-12-07T16:40:52;3.70;91.80
55634;DHT22;41504;53.162;6.788;2022-12-07T16:43:18;3.70;91.60
55634;DHT22;41504;53.162;6.788;2022-12-07T16:45:45;3.70;91.70
55634;DHT22;41504;53.162;6.788;2022-12-07T16:48:10;3.70;91.60
55634;DHT22;41504;53.162;6.788;2022-12-07T16:50:38;3.70;91.60
55634;DHT22;41504;53.162;6.788;2022-12-07T16:53:11;3.80;91.60
55634;DHT22;41504;53.162;6.788;2022-12-07T16:55:37;4.50;91.70
55634;DHT22;41504;53.162;6.788;2022-12-07T16:58:03;3.80;91.50
55634;DHT22;41504;53.162;6.788;2022-12-07T17:00:31;3.80;91.40
55634;DHT22;41504;53.162;6.788;2022-12-07T17:02:57;3.80;91.50
55634;DHT22;41504;53.162;6.788;2022-12-07T17:05:22;3.80;91.50
55634;DHT22;41504;53.162;6.788;2022-12-07T17:07:50;3.80;91.40
55634;DHT22;41504;53.162;6.788;2022-12-07T17:10:15;3.70;91.30
55634;DHT22;41504;53.162;6.788;2022-12-07T17:12:48;3.70;91.30
55634;DHT22;41504;53.162;6.788;2022-12-07T17:15:13;3.70;91.40
55634;DHT22;41504;53.162;6.788;2022-12-07T17:17:46;3.70;91.30
55634;DHT22;41504;53.162;6.788;2022-12-07T17:20:12;3.70;91.40
55634;DHT22;41504;53.162;6.788;2022-12-07T17:22:38;3.70;91.40
55634;DHT22;41504;53.162;6.788;2022-12-07T17:25:04;3.70;91.40
55634;DHT22;41504;53.162;6.788;2022-12-07T17:27:30;3.70;91.40
55634;DHT22;41504;53.162;6.788;2022-12-07T17:29:56;3.70;91.40
55634;DHT22;41504;53.162;6.788;2022-12-07T17:32:22;3.60;91.50
55634;DHT22;41504;53.162;6.788;2022-12-07T17:34:47;3.60;91.50
55634;DHT22;41504;53.162;6.788;2022-12-07T17:37:13;3.70;91.50
55634;DHT22;41504;53.162;6.788;2022-12-07T17:39:38;3.60;91.50
55634;DHT22;41504;53.162;6.788;2022-12-07T17:42:04;3.60;91.50
55634;DHT22;41504;53.162;6.788;2022-12-07T17:44:48;3.60;91.50
55634;DHT22;41504;53.162;6.788;2022-12-07T17:47:14;3.60;91.50
55634;DHT22;41504;53.162;6.788;2022-12-07T17:49:42;3.60;91.50
55634;DHT22;41504;53.162;6.788;2022-12-07T17:52:09;3.60;91.50
55634;DHT22;41504;53.162;6.788;2022-12-07T17:54:53;3.60;91.50
55634;DHT22;41504;53.162;6.788;2022-12-07T17:57:19;3.60;91.50
55634;DHT22;41504;53.162;6.788;2022-12-07T17:59:44;3.60;91.50